x

9439040 - Astoria, Or (asto3) Weather Station

4:54 - Thu 20th Jul 2017 All times are PDT. -7 hours from GMT.

  • Wind
    8mph, 11mph gusts
  • Sea Temp 69°f
  • Luft Temp 59°f
  • Sea Pressure 1018.8mb
  • 9439040 - Astoria, Or
  • 9439040 - Astoria, Or

More Historic Weather Station data

Upgrade to MSW Pro to gain access to the past 30 days of data for over 8000 Wavebouys and Weather Stations around the globe.

Join Pro

Comparision Forecast

View Surf forecast
   
Do 07/20 4:54 8 11 mph 1018.8mb 69f 59f
4:48 7 10 mph 1018.8mb 69f 58f
4:42 7 10 mph 1018.8mb 69f 58f
4:36 6 9 mph 1018.7mb 69f 58f
4:30 7 10 mph 1018.6mb 69f 58f
4:24 8 11 mph 1018.5mb 69f 58f
4:18 7 11 mph 1018.5mb 69f 58f
4:12 8 11 mph 1018.4mb 69f 58f
4:06 8 13 mph 1018.4mb 69f 58f
4:00 8 10 mph 1018.5mb 69f 58f
3:54 9 13 mph 1018.5mb 69f 58f
3:48 8 13 mph 1018.5mb 69f 58f
3:42 9 15 mph 1018.4mb 69f 58f
3:36 11 15 mph 1018.4mb 69f 58f
3:30 11 15 mph 1018.4mb 69f 58f
3:24 8 13 mph 1018.4mb 69f 58f
3:18 9 11 mph 1018.4mb 69f 58f
3:12 8 10 mph 1018.3mb 69f 58f
3:06 7 9 mph 1018.3mb 69f 58f
3:00 6 9 mph 1018.3mb 69f 58f
2:54 5 7 mph 1018.3mb 69f 58f
2:48 3 5 mph 1018.3mb 68f 58f
2:42 3 6 mph 1018.3mb 68f 58f
2:36 3 5 mph 1018.3mb 68f 58f
2:30 5 6 mph 1018.3mb 68f 58f
2:24 3 3 mph 1018.3mb 68f 59f
2:18 3 5 mph 1018.3mb 68f 59f
2:12 2 6 mph 1018.3mb 68f 59f
2:06 3 7 mph 1018.3mb 68f 59f
2:00 3 6 mph 1018.3mb 68f 59f
1:54 3 8 mph 1018.2mb 68f 59f
1:48 6 7 mph 1018.2mb 68f 59f
1:42 6 8 mph 1018.2mb 68f 59f
1:36 7 9 mph 1018.2mb 68f 59f
1:30 8 10 mph 1018.2mb 68f 59f
1:24 8 11 mph 1018.1mb 68f 59f
1:18 8 9 mph 1018.1mb 68f 59f
1:12 8 10 mph 1018.1mb 68f 59f
1:06 7 9 mph 1018mb 68f 59f
1:00 8 10 mph 1018.1mb 68f 59f
12:54 8 10 mph 1018mb 68f 59f
12:48 8 10 mph 1018.1mb 68f 59f
12:42 7 9 mph 1018.1mb 67f 59f
12:36 7 9 mph 1018.1mb 66f 59f
12:30 6 8 mph 1018.1mb 70f 60f
12:24 6 8 mph 1018.1mb 70f 60f
12:18 5 6 mph 1018.2mb 70f 59f
12:12 3 5 mph 1018.2mb 70f 60f
12:06 6 8 mph 1018.2mb 70f 60f
12:00 6 8 mph 1018.2mb 70f 60f
Mi 07/19 11:48 7 11 mph 1018.2mb 70f 60f
11:42 8 11 mph 1018.2mb 70f 60f
11:36 8 10 mph 1018.2mb 70f 60f
11:30 8 11 mph 1018.2mb 70f 60f
11:24 8 10 mph 1018.3mb 70f 60f
11:18 8 11 mph 1018.3mb 69f 60f
11:12 7 10 mph 1018.3mb 69f 60f
11:06 7 11 mph 1018.4mb 69f 60f
11:00 8 11 mph 1018.4mb 69f 60f
10:54 6 8 mph 1018.4mb 70f 60f
10:48 5 7 mph 1018.4mb 69f 60f
10:42 6 9 mph 1018.5mb 69f 60f
10:36 6 9 mph 1018.5mb 70f 60f
10:30 6 10 mph 1018.5mb 69f 61f
10:24 8 10 mph 1018.6mb 70f 61f
10:18 7 10 mph 1018.6mb 70f 61f
10:12 7 8 mph 1018.6mb 70f 61f
10:06 6 9 mph 1018.5mb 70f 61f
10:00 8 9 mph 1018.5mb 70f 61f
9:54 7 10 mph 1018.5mb 70f 61f
9:48 7 9 mph 1018.5mb 70f 61f
9:42 8 11 mph 1018.5mb 70f 61f
9:36 8 10 mph 1018.4mb 70f 61f
9:30 8 13 mph 1018.4mb 70f 61f
9:24 7 11 mph 1018.3mb 70f 61f
9:18 9 14 mph 1018.2mb 71f 62f
9:12 11 14 mph 1018.2mb 71f 62f
9:06 11 13 mph 1018.1mb 71f 62f
9:00 11 13 mph 1018.2mb 71f 62f
8:54 9 13 mph 1018.1mb 71f 62f
8:48 10 13 mph 1018.1mb 71f 62f
8:42 9 13 mph 1018.1mb 71f 62f
8:36 9 13 mph 1018.1mb 71f 62f
8:30 10 14 mph 1018.1mb 71f 63f
8:24 10 14 mph 1018.1mb 71f 63f
8:18 11 15 mph 1018.1mb 71f 63f
8:12 11 15 mph 1018.2mb 71f 63f
8:06 10 15 mph 1018.2mb 71f 63f
8:00 13 15 mph 1018.2mb 71f 63f
7:54 11 15 mph 1018.2mb 71f 63f
7:48 13 15 mph 1018.2mb 71f 63f
7:42 13 15 mph 1018.2mb 71f 64f
7:36 11 16 mph 1018.2mb 71f 63f
7:30 13 15 mph 1018.1mb 71f 63f
7:24 11 15 mph 1018.1mb 71f 63f
7:18 11 15 mph 1018.1mb 71f 64f
7:12 11 15 mph 1018.1mb 71f 64f
7:06 13 15 mph 1018.1mb 71f 64f
7:00 14 16 mph 1018.1mb 71f 64f
6:48 11 14 mph 1018mb 71f 64f
6:42 11 15 mph 1018mb 71f 64f
6:36 11 15 mph 1018mb 71f 64f
6:30 13 14 mph 1018mb 71f 64f
6:24 13 15 mph 1018mb 71f 64f
6:18 11 15 mph 1017.9mb 71f 64f
6:12 14 16 mph 1018mb 71f 64f
6:06 13 15 mph 1017.9mb 70f 64f
6:00 13 15 mph 1018mb 70f 64f
5:48 11 15 mph 1018mb 70f 64f
5:42 11 15 mph 1018mb 70f 64f
5:36 11 15 mph 1018mb 70f 64f
5:30 10 15 mph 1018.1mb 70f 64f
5:24 13 15 mph 1018.1mb 70f 64f
5:18 13 15 mph 1018mb 70f 64f
5:12 13 15 mph 1018.1mb 71f 64f
5:06 11 15 mph 1018.1mb 71f 64f
5:00 13 16 mph 1018.2mb 71f 64f
4:48 13 16 mph 1018.3mb 71f 64f
4:42 13 16 mph 1018.3mb 71f 64f
4:36 13 15 mph 1018.3mb 71f 64f
4:30 13 15 mph 1018.4mb 71f 64f
4:24 13 15 mph 1018.3mb 71f 64f
4:18 11 15 mph 1018.4mb 71f 64f
4:12 13 15 mph 1018.5mb 71f 64f
4:06 14 15 mph 1018.5mb 71f 64f
4:00 11 16 mph 1018.5mb 71f 64f
3:48 14 15 mph 1018.6mb 71f 64f
3:42 13 16 mph 1018.7mb 71f 64f
3:36 14 16 mph 1018.6mb 71f 64f
3:30 14 16 mph 1018.6mb 71f 64f
3:24 13 16 mph 1018.7mb 71f 64f
3:18 14 16 mph 1018.7mb 71f 64f
3:12 13 15 mph 1018.8mb 71f 64f
3:06 13 15 mph 1018.8mb 71f 64f
3:00 14 16 mph 1018.8mb 71f 64f
2:48 14 15 mph 1018.9mb 69f 64f
2:42 10 14 mph 1018.9mb 69f 64f
2:36 13 14 mph 1018.9mb 69f 63f
2:30 13 15 mph 1018.9mb 71f 63f
2:24 11 15 mph 1019mb 71f 63f
2:18 13 15 mph 1019mb 71f 63f
2:12 13 15 mph 1019mb 70f 63f
2:06 13 16 mph 1019mb 70f 63f
2:00 13 16 mph 1019mb 69f 63f
1:54 14 15 mph 1019.1mb 69f 63f
1:48 14 15 mph 1019.1mb 69f 63f
1:42 13 15 mph 1019.1mb 69f 63f
1:36 11 14 mph 1019.1mb 69f 63f
1:30 9 13 mph 1019.1mb 69f 63f
1:24 10 13 mph 1019.1mb 69f 62f
1:18 10 11 mph 1019.1mb 69f 63f
1:12 9 10 mph 1019.2mb 69f 63f
1:06 8 11 mph 1019.2mb 69f 62f
1:00 8 11 mph 1019.3mb 69f 62f
12:54 9 11 mph 1019.3mb 69f 62f
12:48 9 10 mph 1019.3mb 69f 62f
12:42 7 10 mph 1019.4mb 70f 62f
12:36 7 8 mph 1019.4mb 70f 62f
12:30 7 8 mph 1019.4mb 70f 62f
12:24 7 8 mph 1019.4mb 70f 62f
12:18 6 6 mph 1019.4mb 70f 62f
12:12 5 6 mph 1019.4mb 70f 62f
12:06 5 6 mph 1019.4mb 69f 62f
12:00 5 6 mph 1019.4mb 69f 62f
11:54 2 5 mph 1019.5mb 69f 62f
11:48 3 5 mph 1019.6mb 69f 62f
11:42 3 6 mph 1019.6mb 70f 62f
11:36 5 6 mph 1019.7mb 70f 61f
11:30 3 6 mph 1019.7mb 70f 62f
11:24 3 6 mph 1019.7mb 70f 62f
11:18 5 7 mph 1019.8mb 70f 61f
11:12 6 6 mph 1019.8mb 70f 61f
11:06 3 6 mph 1019.8mb 70f 61f
11:00 3 5 mph 1019.9mb 70f 61f
10:54 1 5 mph 1019.9mb 70f 61f
10:48 3 5 mph 1019.9mb 70f 61f
10:42 2 3 mph 1019.9mb 70f 61f
10:36 2 3 mph 1019.9mb 70f 61f
10:30 3 5 mph 1019.8mb 70f 61f
10:24 1 3 mph 1019.9mb 70f 61f
10:18 2 6 mph 1019.9mb 70f 61f
10:12 3 6 mph 1020mb 70f 60f
10:06 3 5 mph 1020mb 70f 60f
10:00 2 6 mph 1020mb 70f 60f
9:54 3 5 mph 1020mb 70f 60f
9:48 1 3 mph 1020.1mb 70f 61f
9:42 3 5 mph 1020.1mb 70f 60f
9:36 5 6 mph 1020mb 70f 60f
9:30  -  2 mph 1020mb 70f 61f
9:24  -  3 mph 1020.1mb 70f 60f
9:18 2 3 mph 1020.1mb 70f 60f
9:12 2 3 mph 1020.1mb 70f 60f
9:06  -  2 mph 1020.2mb 70f 61f
9:00 1 2 mph 1020.2mb 70f 60f
8:54  -  1 mph 1020.2mb 70f 60f
8:48  -  1 mph 1020.2mb 70f 60f
8:42 1 3 mph 1020.2mb 70f 59f
8:36 1 2 mph 1020.2mb 70f 60f
8:30 1 2 mph 1020.3mb 70f 59f
8:24 1 2 mph 1020.3mb 70f 59f
8:18  -  1 mph 1020.3mb 70f 59f
8:12 1 5 mph 1020.2mb 70f 58f
8:06 5 7 mph 1020.2mb 70f 58f
8:00 6 7 mph 1020.2mb 70f 58f
7:54 5 6 mph 1020.1mb 70f 58f
7:48 5 6 mph 1020.2mb 69f 58f
7:42 6 7 mph 1020.2mb 69f 57f
7:36 5 8 mph 1020.2mb 69f 57f
7:30 7 9 mph 1020.1mb 69f 57f
7:24 7 8 mph 1020mb 69f 57f
7:18 7 8 mph 1020.1mb 69f 57f
7:12 6 6 mph 1020.1mb 69f 57f
7:06 6 7 mph 1020.1mb 69f 57f
7:00 2 3 mph 1020.1mb 69f 58f
6:54 2 3 mph 1020.1mb 69f 58f
6:48 2 3 mph 1020.1mb 69f 58f
6:42 2 3 mph 1020mb 69f 57f
6:36 2 3 mph 1020mb 69f 58f
6:30  -  1 mph 1020mb 69f 57f
6:24  -  2 mph 1020mb 69f 57f
6:18 2 2 mph 1020mb 69f 57f
6:12  -  2 mph 1020.1mb 69f 57f
6:06 1 2 mph 1020.1mb 69f 57f
6:00 2 2 mph 1020mb 69f 57f
5:54  -  3 mph 1020mb 69f 57f
5:48 1 6 mph 1019.9mb 69f 57f
5:42 1 2 mph 1019.8mb 69f 57f
5:36  -  1 mph 1019.7mb 69f 57f
5:30 1 3 mph 1019.7mb 69f 57f
5:24  -  2 mph 1019.7mb 68f 57f
5:18 2 2 mph 1019.7mb 68f 57f
5:12 1 2 mph 1019.7mb 69f 58f
5:06  -  2 mph 1019.6mb 69f 58f
5:00 2 2 mph 1019.6mb 69f 58f
4:54 2 3 mph 1019.6mb 69f 58f
4:48 3 3 mph 1019.6mb 68f 58f
4:42  -  2 mph 1019.6mb 68f 58f
4:36 1 3 mph 1019.6mb 68f 58f
4:30 2 3 mph 1019.5mb 68f 58f
4:24 2 2 mph 1019.5mb 68f 59f
4:18 2 2 mph 1019.4mb 68f 58f
4:12  -  2 mph 1019.4mb 68f 58f
4:06 1 2 mph 1019.4mb 68f 58f
4:00 1 2 mph 1019.4mb 68f 58f
3:54  -  2 mph 1019.3mb 69f 58f
3:48 2 2 mph 1019.3mb 69f 58f
3:42 2 2 mph 1019.3mb 69f 58f
3:36 2 5 mph 1019.3mb 69f 59f
3:30 3 5 mph 1019.4mb 69f 59f
3:24 3 6 mph 1019.4mb 69f 59f
3:18 5 8 mph 1019.5mb 69f 60f
3:12 6 7 mph 1019.4mb 69f 60f
3:06  -  9 mph 1019.5mb 69f 59f
3:00 6 8 mph 1019.5mb 69f 60f
2:54 6 7 mph 1019.4mb 69f 60f
2:48 5 7 mph 1019.5mb 69f 60f
2:42 6 6 mph 1019.5mb 69f 60f
2:36 2 7 mph 1019.5mb 69f 60f
2:30 6 8 mph 1019.5mb 69f 60f
2:24 5 7 mph 1019.5mb 69f 60f
2:18 6 8 mph 1019.5mb 69f 60f
2:12 5 8 mph 1019.5mb 69f 60f
2:06 5 7 mph 1019.4mb 69f 60f
2:00 6 8 mph 1019.5mb 69f 60f
1:54 6 8 mph 1019.4mb 69f 60f
1:48 7 8 mph 1019.4mb 69f 60f
1:42 6 9 mph 1019.5mb 69f 60f
1:36 6 9 mph 1019.5mb 69f 60f
1:30 6 11 mph 1019.6mb 68f 60f
1:24 6 8 mph 1019.6mb 68f 60f
1:18 7 8 mph 1019.6mb 68f 60f
1:12 6 9 mph 1019.5mb 68f 60f
1:06 6 8 mph 1019.4mb 68f 60f
1:00 8 9 mph 1019.4mb 68f 60f
12:54 7 8 mph 1019.4mb 68f 60f
12:48 7 9 mph 1019.5mb 68f 60f
12:42 5 8 mph 1019.5mb 68f 60f
12:36 5 8 mph 1019.5mb 68f 60f
12:30 6 7 mph 1019.5mb 68f 60f
12:24 6 9 mph 1019.5mb 68f 60f
12:18 6 7 mph 1019.5mb 69f 60f
12:12 6 9 mph 1019.5mb 69f 60f
12:06 7 9 mph 1019.5mb 69f 60f
12:00 7 8 mph 1019.5mb 69f 60f
Di 07/18 11:54 6 8 mph 1019.5mb 69f 60f
11:48 6 8 mph 1019.5mb 69f -
11:42 5 7 mph 1019.4mb 69f -
11:36 6 8 mph 1019.5mb 69f -
11:30 3 8 mph 1019.4mb 69f 60f
11:24 5 9 mph 1019.4mb 69f 60f
11:18 6 7 mph 1019.5mb 70f 60f
11:12 5 7 mph 1019.5mb 70f 60f
11:06 6 7 mph 1019.4mb 70f 60f
11:00 6 9 mph 1019.4mb 70f 60f
10:54 6 9 mph 1019.4mb 70f 60f
10:48 6 8 mph - - -
10:42 5 8 mph - - -
10:36 5 8 mph - - -
10:30 5 7 mph 1019.4mb 69f 60f
10:24 6 8 mph 1019.4mb 69f 60f
10:18 6 9 mph 1019.4mb 70f 60f
10:12 6 8 mph 1019.3mb 70f 60f
10:06 5 7 mph 1019.2mb 70f 60f
10:00 6 8 mph 1019.1mb 70f 60f
9:54 7 9 mph 1019.1mb 70f 60f
9:48 6 9 mph 1019.1mb 70f 60f
9:42 8 10 mph 1019.1mb 70f 60f
9:36 8 11 mph 1019mb 70f 60f
9:30 9 13 mph 1018.9mb 70f 61f
9:24 7 10 mph 1018.9mb 70f 61f
9:18 7 11 mph 1018.8mb 70f 61f
9:12 7 13 mph 1018.8mb 70f 61f
9:06 9 11 mph 1018.8mb 70f 61f
9:00 8 10 mph 1018.8mb 70f 62f
8:54 9 13 mph 1018.7mb 70f 61f
8:48 9 11 mph 1018.7mb 70f 62f
8:42 8 11 mph 1018.7mb 70f 62f
8:36 8 10 mph 1018.7mb 70f 62f
8:30 10 13 mph 1018.7mb 70f 62f
8:24 10 13 mph 1018.7mb 70f 62f
8:18 10 14 mph 1018.7mb 70f 62f
8:12 9 13 mph 1018.6mb 70f 62f
8:06 13 15 mph 1018.6mb 70f 62f
8:00 13 15 mph 1018.6mb 70f 62f
7:54 11 15 mph 1018.6mb 70f 63f
7:48 13 16 mph 1018.5mb 70f 63f
7:42 14 15 mph 1018.5mb 70f 63f
7:36 14 16 mph 1018.5mb 70f 63f
7:30 14 17 mph 1018.5mb 70f 63f
7:24 15 17 mph 1018.4mb 70f 63f
7:18 14 17 mph 1018.4mb 70f 63f
7:12 15 18 mph 1018.4mb 70f 63f
7:06 15 18 mph 1018.4mb 70f 63f
7:00 15 18 mph 1018.4mb 70f 63f
6:54 14 17 mph 1018.3mb 70f 63f
6:48 16 17 mph 1018.2mb 70f 63f
6:42 14 17 mph 1018.2mb 70f 63f
6:36 15 18 mph 1018.3mb 70f 63f
6:30 15 18 mph 1018.3mb 70f 63f
6:24 17 20 mph 1018.3mb 70f 63f
6:18 15 18 mph 1018.3mb 70f 63f
6:12 15 18 mph 1018.3mb 70f 63f
6:06 16 20 mph 1018.2mb 70f 63f
6:00 15 18 mph 1018.2mb 70f 63f
5:54 15 20 mph 1018.3mb 70f 63f
5:48 16 20 mph 1018.3mb 70f 63f
5:42 17 20 mph 1018.3mb 70f 63f
5:36 15 21 mph 1018.3mb 71f 63f
5:30 18 21 mph 1018.3mb 71f 63f
5:24 17 20 mph 1018.3mb 71f 63f
5:18 16 21 mph 1018.2mb 71f 64f
5:12 18 21 mph 1018.2mb 71f 63f
5:06 16 20 mph 1018.1mb 71f 64f
5:00 15 21 mph 1018.1mb 71f 64f
4:54 18 21 mph 1018.1mb 71f 63f
4:48 20 22 mph 1018.1mb 71f 63f
4:42 17 21 mph 1018.1mb 71f 63f
4:36 17 22 mph 1018mb 71f 63f
4:30 16 21 mph 1018mb 71f 63f
4:24 15 20 mph 1018mb 71f 63f
4:18 17 20 mph 1018mb 71f 63f
4:12 16 18 mph 1017.9mb 71f 63f
4:06 17 21 mph 1017.8mb 71f 63f
4:00 17 21 mph 1017.8mb 71f 63f
3:54 18 22 mph 1017.8mb 71f 63f
3:48 20 22 mph 1017.7mb 72f 63f
3:42 17 22 mph 1017.7mb 72f 63f
3:36 18 22 mph 1017.7mb 71f 63f
3:30 20 22 mph 1017.7mb 70f 63f
3:24 17 22 mph 1017.7mb 70f 63f
3:18 18 22 mph 1017.7mb 70f 63f
3:12 18 22 mph 1017.6mb 70f 63f
3:06 20 22 mph 1017.6mb 70f 63f
3:00 20 22 mph 1017.6mb 70f 63f
2:54 20 22 mph 1017.6mb 71f 63f
2:48 18 21 mph 1017.5mb 71f 64f
2:42 17 21 mph 1017.5mb 71f 64f
2:36 20 22 mph 1017.5mb 71f 64f
2:30 20 22 mph 1017.4mb 70f 64f
2:24 17 22 mph 1017.4mb 70f 64f
2:18 18 21 mph 1017.3mb 70f 64f
2:12 18 22 mph 1017.2mb 70f 64f
2:06 18 22 mph 1017.2mb 70f 64f
2:00 18 21 mph 1017.2mb 70f 64f
1:54 18 21 mph 1017.1mb 70f 64f
1:48 18 20 mph 1017.2mb 70f 64f
1:42 16 18 mph 1017.2mb 70f 64f
1:36 16 20 mph 1017.2mb 70f 64f
1:30 16 18 mph 1017.2mb 70f 63f
1:24 15 17 mph 1017.2mb 70f 63f
1:18 16 17 mph 1017.3mb 70f 63f
1:12 15 17 mph 1017.3mb 70f 63f
1:06 14 17 mph 1017.3mb 70f 63f
1:00 14 16 mph 1017.3mb 70f 63f
12:54 14 16 mph 1017.3mb 70f 63f
12:48 14 15 mph 1017.4mb 70f 62f
12:42 13 17 mph 1017.4mb 70f 62f
12:36 14 16 mph 1017.5mb 70f 62f
12:30 14 16 mph 1017.5mb 69f 62f
12:24 14 16 mph 1017.6mb 69f 62f
12:18 14 16 mph 1017.6mb 66f 62f
12:12 14 16 mph 1017.7mb 66f 62f
12:06 14 15 mph 1017.7mb 66f 62f
12:00 13 15 mph 1017.7mb 67f 62f
11:54 13 14 mph 1017.7mb 67f 62f
11:48 13 14 mph 1017.7mb 69f 62f
11:42 11 14 mph 1017.6mb 69f 62f
11:36 11 14 mph 1017.6mb 69f 62f
11:30 11 13 mph 1017.6mb 69f 62f
11:24 10 13 mph 1017.6mb 69f 62f
11:18 10 11 mph 1017.6mb 69f 61f
11:12 10 11 mph 1017.5mb 69f 61f
11:06 9 11 mph 1017.5mb 69f 61f
11:00 9 11 mph 1017.5mb 69f 61f
10:54 9 11 mph 1017.5mb 69f 61f
10:48 9 10 mph 1017.5mb 69f 61f
10:42 8 9 mph 1017.6mb 69f 61f
10:36 9 10 mph 1017.6mb 69f 60f
10:30 8 10 mph 1017.7mb 69f 60f
10:24 8 11 mph 1017.7mb 69f 60f
10:18 7 10 mph 1017.7mb 69f 60f
10:12 8 9 mph 1017.6mb 69f 60f
10:06 7 9 mph 1017.6mb 69f 60f
10:00 7 9 mph 1017.7mb 69f 60f
9:54 7 9 mph 1017.7mb 69f 59f
9:48 8 9 mph 1017.7mb 69f 60f
9:42 8 10 mph 1017.6mb 69f 60f
9:36 8 10 mph 1017.6mb 69f 60f
9:30 6 7 mph 1017.7mb 69f 59f
9:24 6 8 mph 1017.6mb 69f 59f
9:18 3 5 mph 1017.7mb 69f 59f
9:12 1 3 mph 1017.7mb 69f 59f
9:06 1 6 mph 1017.7mb 69f 59f
9:00 5 6 mph 1017.7mb 69f 58f
8:54 2 5 mph 1017.8mb 69f 59f
8:48 2 3 mph 1017.7mb 69f 58f
8:42  -  2 mph 1017.7mb 69f 58f
8:36 2 5 mph 1017.7mb 70f 58f
8:30 2 2 mph 1017.7mb 70f 58f
8:24  -  2 mph 1017.7mb 70f 58f
8:18  -  2 mph 1017.7mb 69f 58f
8:12 3 3 mph 1017.6mb 69f 57f
8:06  -  2 mph 1017.6mb 69f 58f
8:00 2 3 mph 1017.6mb 69f 57f
7:54 2 3 mph 1017.6mb 69f 57f
7:48 2 3 mph 1017.6mb 69f 57f
7:42 5 6 mph 1017.5mb 69f 57f
7:36 2 3 mph 1017.6mb 69f 57f
7:30 1 2 mph 1017.5mb 69f 57f
7:24 2 5 mph 1017.5mb 69f 56f
7:18 3 5 mph 1017.5mb 69f 56f
7:12 3 5 mph 1017.5mb 69f 57f
7:06 3 5 mph 1017.5mb 69f 56f
7:00 1 2 mph 1017.5mb 69f 57f
6:54 2 3 mph 1017.4mb 69f 57f
6:48 3 3 mph 1017.3mb 69f 56f
6:42 2 2 mph 1017.3mb 69f 56f
6:36  -  2 mph 1017.3mb 69f 56f
6:30 2 3 mph 1017.3mb 69f 56f
6:24 2 3 mph 1017.3mb 69f 56f
6:18 2 3 mph 1017.3mb 69f 56f
6:12 2 3 mph 1017.3mb 69f 55f
6:06 2 3 mph 1017.3mb 69f 55f
6:00 2 5 mph 1017.3mb 69f 55f
5:54 1 3 mph 1017.3mb 69f 55f
5:48 3 3 mph 1017.3mb 69f 55f
5:42 2 5 mph 1017.3mb 69f 55f
5:36 3 5 mph 1017.3mb 69f 55f
5:30 1 3 mph 1017.3mb 69f 55f
5:24 2 5 mph 1017.3mb 69f 55f
5:18 3 6 mph 1017.2mb 69f 55f
5:12 3 5 mph 1017.2mb 69f 55f
5:06 3 6 mph 1017.2mb 69f 55f
5:00 3 5 mph 1017.2mb 69f 55f
4:54 3 6 mph 1017.2mb 69f 55f
4:48 3 5 mph 1017.2mb 69f 55f
4:42 3 7 mph 1017.3mb 68f 55f
4:36 3 6 mph 1017.3mb 68f 55f
4:30 5 6 mph 1017.3mb 69f 55f
4:24 5 6 mph 1017.4mb 69f 55f
4:18 2 3 mph 1017.4mb 68f 56f
4:12 2 3 mph 1017.4mb 68f 56f
4:06 2 3 mph 1017.3mb 68f 56f
4:00 2 2 mph 1017.3mb 68f 56f
3:54 2 3 mph 1017.2mb 68f 56f
3:48 1 3 mph 1017.3mb 68f 56f
3:42 2 3 mph 1017.2mb 68f 56f
3:36 1 2 mph 1017.3mb 68f 56f
3:30 1 3 mph 1017.3mb 68f 56f
3:24 3 3 mph 1017.3mb 68f 56f
3:18 1 2 mph 1017.2mb 68f 56f
3:12 3 5 mph 1017.2mb 68f 56f
3:06  -  5 mph 1017.2mb 68f 56f
3:00 1 2 mph 1017.2mb 68f 56f
2:54 2 3 mph 1017.2mb 68f 56f
2:48 1 3 mph 1017.3mb 68f 56f
2:42  -  3 mph 1017.3mb 68f 56f
2:36 1 5 mph 1017.3mb 68f 57f
2:30 2 2 mph 1017.4mb 69f 57f
2:24  -  3 mph 1017.4mb 69f 57f
2:18 2 3 mph 1017.4mb 69f 57f
2:12 2 2 mph 1017.4mb 69f 57f
2:06 1 3 mph 1017.4mb 69f 57f
2:00 1 2 mph 1017.4mb 69f 57f
1:54 1 3 mph 1017.4mb 69f 57f
1:48 2 5 mph 1017.4mb 69f 57f
1:42 1 2 mph 1017.5mb 69f 57f
1:36 2 3 mph 1017.5mb 69f 57f
1:30 1 3 mph 1017.5mb 69f 58f
1:24 2 3 mph 1017.5mb 69f 58f
1:18 1 2 mph 1017.5mb 69f 58f
1:12 2 3 mph 1017.4mb 69f 57f
1:06 2 3 mph 1017.5mb 69f 57f
1:00 2 3 mph 1017.5mb 69f 57f
12:54 2 5 mph 1017.5mb 69f 57f
12:48 3 6 mph 1017.5mb 69f 57f
12:42 5 6 mph 1017.6mb 69f 57f
12:36 3 7 mph 1017.6mb 69f 57f
12:30 6 7 mph 1017.6mb 69f 57f
12:24 5 6 mph 1017.6mb 69f 57f
12:18 5 6 mph 1017.7mb 69f 57f
12:12 5 7 mph 1017.7mb 69f 57f
12:06 3 6 mph 1017.7mb 69f 57f
12:00 5 6 mph 1017.7mb 69f 57f
Mo 07/17 11:54 5 6 mph 1017.8mb 69f 58f
11:48 3 7 mph 1017.8mb 69f -
11:42 5 6 mph 1017.8mb 69f -
11:36 5 5 mph 1017.8mb 69f -
11:30 3 3 mph 1017.8mb 69f 58f
11:24 3 5 mph 1017.9mb 69f 58f
11:18 3 5 mph 1017.9mb 69f 59f
11:12 3 5 mph 1017.9mb 69f 59f
11:06 1 3 mph 1018mb 69f 59f
11:00 2 2 mph 1018mb 69f 60f
10:54 2 7 mph 1017.9mb 69f 60f
10:48 6 7 mph - - -
10:42 3 6 mph - - -
10:36 1 3 mph - - -
10:30 3 6 mph 1018.1mb 69f 61f
10:24 3 7 mph 1018mb 69f 61f
10:18 3 8 mph 1018mb 69f 61f
10:12 8 10 mph 1018mb 69f 61f
10:06 8 9 mph 1018mb 69f 61f
10:00 7 9 mph 1017.9mb 69f 61f
9:54 7 9 mph 1017.8mb 69f 61f
9:48 9 11 mph 1017.8mb 69f 61f
9:42 8 11 mph 1017.8mb 69f 61f
9:36 10 11 mph 1017.8mb 69f 61f
9:30 10 13 mph 1017.7mb 69f 62f
9:24 10 11 mph 1017.6mb 69f 62f
9:18 6 6 mph 1017.5mb 69f 63f
9:12 5 6 mph 1017.5mb 69f 63f
9:06 3 5 mph 1017.5mb 69f 63f
9:00 3 6 mph 1017.5mb 69f 63f
8:54 5 6 mph 1017.5mb 69f 64f
8:48 1 5 mph 1017.4mb 69f 64f
8:42 5 6 mph 1017.5mb 69f 64f
8:36 5 8 mph 1017.4mb 69f 64f
8:30 6 8 mph 1017.4mb 69f 64f
8:24 5 7 mph 1017.4mb 69f 64f
8:18 3 7 mph 1017.4mb 69f 64f
8:12 3 7 mph 1017.4mb 70f 64f
8:06 6 8 mph 1017.3mb 70f 64f
8:00 6 8 mph 1017.3mb 70f 64f
7:54 6 7 mph 1017.3mb 70f 64f
7:48 5 10 mph 1017.3mb 70f 64f
7:42 7 8 mph 1017.3mb 70f 64f
7:36 7 9 mph 1017.3mb 70f 64f
7:30 7 9 mph 1017.3mb 70f 65f
7:24 7 10 mph 1017.2mb 70f 65f
7:18 7 8 mph 1017.2mb 70f 65f
7:12 6 10 mph 1017.2mb 70f 65f
7:06 6 9 mph 1017.2mb 70f 65f
7:00 7 9 mph 1017.2mb 70f 66f
6:54 9 10 mph 1017.2mb 70f 66f
6:48 9 11 mph 1017.2mb 70f 65f
6:42 7 9 mph 1017.2mb 70f 66f
6:36 7 9 mph 1017.2mb 71f 66f
6:30 7 8 mph 1017.3mb 70f 67f
6:24 6 8 mph 1017.3mb 70f 67f
6:18 6 8 mph 1017.3mb 70f 67f
6:12 3 8 mph 1017.4mb 70f 68f
6:06 6 8 mph 1017.4mb 70f 67f
6:00 7 8 mph 1017.4mb 70f 67f
5:54 2 7 mph 1017.4mb 71f 68f
5:48 7 9 mph 1017.4mb 71f 67f
5:42 7 8 mph 1017.5mb 71f 67f
5:36 7 8 mph 1017.5mb 70f 67f
5:30 5 9 mph 1017.5mb 70f 68f
5:24 7 13 mph 1017.5mb 70f 67f
5:18 3 8 mph 1017.5mb 70f 68f
5:12 9 10 mph 1017.5mb 70f 68f
5:06 6 9 mph 1017.5mb 70f 68f
5:00  -  5 mph 1017.6mb 70f 70f
4:54  -  3 mph 1017.6mb 70f 70f
4:48  -  3 mph 1017.6mb 70f 70f
4:42 1 7 mph 1017.5mb 70f 69f
4:36 2 10 mph 1017.6mb 70f 69f
4:30 2 6 mph 1017.6mb 70f 69f
4:24 5 10 mph 1017.6mb 71f 68f
4:18 2 9 mph 1017.6mb 71f 68f
4:12 6 11 mph 1017.7mb 71f 67f
4:06 5 14 mph 1017.7mb 70f 67f
4:00 7 15 mph 1017.8mb 71f 67f
3:54 6 14 mph 1017.8mb 71f 67f
3:48 7 13 mph 1017.9mb 71f 67f
3:42 3 10 mph 1017.9mb 71f 68f
3:36 2 7 mph 1017.9mb 71f 69f
3:30 2 8 mph 1017.9mb 71f 69f
3:24 2 8 mph 1017.9mb 71f 69f
3:18 1 6 mph 1017.9mb 71f 69f
3:12 2 7 mph 1017.9mb 71f 69f
3:06 2 8 mph 1017.9mb 71f 68f
3:00 2 9 mph 1017.9mb 71f 68f
2:54 3 8 mph 1017.9mb 71f 67f
2:48 3 9 mph 1017.9mb 70f 67f
2:42 2 7 mph 1018mb 70f 67f
2:36 2 6 mph 1018mb 70f 67f
2:30 2 7 mph 1017.9mb 70f 68f
2:24 1 7 mph 1018mb 70f 69f
2:18 2 6 mph 1018mb 70f 69f
2:12 1 3 mph 1018.1mb 69f 69f
2:06 1 3 mph 1018.1mb 69f 70f
2:00 1 9 mph 1018.1mb 69f 69f
1:54 3 15 mph 1018.2mb 70f 67f
1:48 11 16 mph 1018.2mb 70f 65f
1:42 6 11 mph 1018.3mb 70f 66f
1:36 5 13 mph 1018.4mb 70f 66f
1:30 3 8 mph 1018.4mb 70f 66f
1:24 2 9 mph 1018.4mb 70f 66f
1:18 2 9 mph 1018.5mb 70f 66f
1:12 2 6 mph 1018.5mb 70f 66f
1:06 2 6 mph 1018.5mb 70f 67f
1:00 3 8 mph 1018.5mb 70f 67f
12:54 2 6 mph 1018.6mb 70f 67f
12:48 1 7 mph 1018.6mb 70f 67f
12:42 2 7 mph 1018.6mb 70f 66f
12:36 2 7 mph 1018.7mb 70f 66f
12:30 2 11 mph 1018.7mb 70f 66f
12:24 2 9 mph 1018.7mb 70f 66f
12:18 3 9 mph 1018.7mb 70f 65f
12:12 6 11 mph 1018.7mb 70f 65f
12:06 5 10 mph 1018.8mb 70f 65f
12:00 3 14 mph 1018.8mb 70f 65f
11:54 8 10 mph 1018.8mb 69f 64f
11:48 6 13 mph 1018.8mb 69f 64f
11:42 6 11 mph 1018.8mb 69f 64f
11:36 7 10 mph 1018.8mb 69f 64f
11:30 8 10 mph 1018.9mb 69f 63f
11:24 8 11 mph 1019mb 69f 64f
11:18 6 9 mph 1019mb 69f 64f
11:12 6 10 mph 1019mb 68f 63f
11:06 6 10 mph 1019.1mb 68f 63f
11:00 6 8 mph 1019.1mb 68f 63f
10:54 5 8 mph 1019.1mb 68f 63f
10:48 3 7 mph 1019.1mb 68f 63f
10:42 5 7 mph 1019.1mb 67f 63f
10:36 1 6 mph 1019.2mb 68f 64f
10:30 2 6 mph 1019.2mb 68f 63f
10:24 1 3 mph 1019.3mb 68f 63f
10:18 2 5 mph 1019.3mb 68f 62f
10:12 1 2 mph 1019.3mb 67f 62f
10:06 1 3 mph 1019.4mb 68f 62f
10:00 2 3 mph 1019.4mb 68f 61f
9:54  -  1 mph 1019.4mb 68f 62f
9:48  -  3 mph 1019.5mb 68f 61f
9:42 2 3 mph 1019.5mb 69f 60f
9:36 2 3 mph 1019.5mb 69f 60f
9:30 1 3 mph 1019.6mb 69f 60f
9:24 2 3 mph 1019.6mb 69f 60f
9:18 2 3 mph 1019.6mb 69f 59f
9:12  -  2 mph 1019.7mb 69f 60f
9:06 1 3 mph 1019.7mb 69f 59f
9:00 1 2 mph 1019.7mb 69f 59f
8:54 2 3 mph 1019.8mb 69f 58f
8:48 2 3 mph 1019.8mb 69f 58f
8:42 1 2 mph 1019.8mb 69f 58f
8:36 1 3 mph 1019.8mb 69f 58f
8:30  -  3 mph 1019.9mb 69f 58f
8:24  -  2 mph 1019.9mb 69f 58f
8:18  -  1 mph 1019.9mb 69f 58f
8:12  -  1 mph 1019.9mb 69f 57f
8:06  -  2 mph 1019.9mb 69f 57f
8:00  -  2 mph 1019.9mb 69f 56f
7:54 2 2 mph 1020mb 69f 56f
7:48 2 3 mph 1020mb 69f 56f
7:42 3 5 mph 1019.9mb 69f 55f
7:36 2 3 mph 1020mb 69f 55f
7:30 3 5 mph 1020mb 69f 55f
7:24 1 3 mph 1020mb 69f 55f
7:18 1 3 mph 1019.9mb 69f 55f
7:12 1 3 mph 1019.9mb 69f 55f
7:06 3 6 mph 1019.9mb 69f 55f
7:00 2 5 mph 1019.9mb 69f 55f
6:54 3 5 mph 1020mb 69f 55f
6:48 2 3 mph 1020mb 69f 55f
6:42 3 6 mph 1019.9mb 69f 55f
6:36 2 5 mph 1019.9mb 69f 55f
6:30 3 5 mph 1019.9mb 69f 55f
6:24 3 5 mph 1019.9mb 69f 55f
6:18 3 5 mph 1019.9mb 69f 55f
6:12 2 3 mph 1019.9mb 69f 55f
6:06 5 5 mph 1019.9mb 69f 55f
6:00 2 3 mph 1019.9mb 68f 55f
5:54 2 6 mph 1019.8mb 68f 55f
5:48 3 5 mph 1019.9mb 68f 55f
5:42 3 6 mph 1019.8mb 68f 55f
5:36 5 6 mph 1019.9mb 68f 55f
5:30 5 6 mph 1019.8mb 68f 55f
5:24 3 5 mph 1019.8mb 68f 55f
5:18 2 6 mph 1019.7mb 68f 56f
5:12 3 5 mph 1019.8mb 68f 56f
5:06 5 6 mph 1019.7mb 68f 56f
5:00 2 5 mph 1019.7mb 68f 56f
4:54 2 5 mph 1019.8mb 68f 56f
4:48 3 6 mph 1019.8mb 68f 56f
4:42 3 10 mph 1019.9mb 68f 57f
4:36 5 10 mph 1019.9mb 68f 57f
4:30 7 11 mph 1019.9mb 68f 58f
4:24 8 11 mph 1019.8mb 68f 58f
4:18 9 11 mph 1019.8mb 68f 58f
4:12 8 11 mph 1019.8mb 68f 58f
4:06 6 11 mph 1019.8mb 68f 58f
4:00  -  mph 1019.8mb 68f 58f
3:54  -  mph 1019.9mb 68f 58f
3:48 7 8 mph 1020mb 68f 58f
3:42 6 8 mph 1020mb 68f 58f
3:36 6 9 mph 1019.9mb 68f 58f
3:30 7 10 mph 1019.9mb 68f 58f
3:24 7 11 mph 1019.9mb 68f 58f
3:18 10 14 mph 1019.9mb 68f 58f
3:12 8 10 mph 1020mb 68f 58f
3:06 7 10 mph 1020.1mb 68f 58f
3:00 7 10 mph 1020.2mb 68f 58f
2:54 3 6 mph 1020.3mb 68f 57f
2:48 1 2 mph 1020.3mb 68f 57f
2:42 1 3 mph 1020.3mb 68f 56f
2:36 2 3 mph 1020.3mb 68f 57f
2:30 2 3 mph 1020.3mb 68f 57f
2:24 2 3 mph 1020.3mb 68f 57f
2:18 2 3 mph 1020.4mb 68f 57f
2:12 2 5 mph 1020.4mb 68f 56f
2:06 5 6 mph 1020.4mb 68f 57f
2:00 1 2 mph 1020.4mb 68f 57f
1:54 2 6 mph 1020.5mb 68f 57f
1:48 5 6 mph 1020.4mb 68f 58f
1:42 2 6 mph 1020.5mb 68f 58f
1:36 5 6 mph 1020.4mb 68f 58f
1:30 2 6 mph 1020.5mb 68f 58f
1:24 3 7 mph 1020.6mb 68f 59f
1:18 6 7 mph 1020.6mb 69f 60f
1:12 6 7 mph 1020.7mb 69f 60f
1:06 5 8 mph 1020.7mb 69f 60f
1:00 7 9 mph 1020.8mb 69f 59f
12:54 6 8 mph 1020.8mb 69f 60f
12:48 7 10 mph 1020.8mb 69f 60f
12:42 8 10 mph 1020.8mb 69f 60f
12:36 8 11 mph 1020.8mb 69f 60f
12:30 8 9 mph 1020.9mb 69f 60f
12:24 9 11 mph 1020.9mb 69f 60f
12:18 10 13 mph 1021mb 69f 60f
12:12 9 11 mph 1021.1mb 69f 60f
12:06 9 13 mph 1021.1mb 69f 60f
12:00 8 13 mph 1021.1mb 69f 60f
So 07/16 11:54 13 16 mph 1021.2mb 69f 59f
11:48 13 16 mph 1021.2mb 69f 60f
11:42 13 15 mph 1021.3mb 69f 59f
11:36 13 16 mph 1021.4mb 69f 60f
11:30 13 15 mph 1021.4mb 69f 60f
11:24 11 15 mph 1021.4mb 68f 60f
11:18 13 15 mph 1021.4mb 68f 59f
11:12 11 17 mph 1021.5mb 68f 60f
11:06 11 16 mph 1021.5mb 69f 59f
11:00 10 17 mph 1021.5mb 69f 60f
10:54 13 15 mph 1021.5mb 69f 59f
10:48 11 18 mph 1021.6mb 69f 60f
10:42 13 20 mph 1021.5mb 69f 60f
10:36 11 15 mph 1021.5mb 69f 60f
10:30 10 13 mph 1021.5mb 69f 60f
10:24 13 17 mph 1021.7mb 69f 60f
10:18 8 11 mph 1021.8mb 69f 60f
10:12 6 10 mph 1021.8mb 68f 60f
10:06 6 10 mph 1021.8mb 67f 60f
10:00 7 10 mph 1021.8mb 67f 60f
9:54 7 13 mph 1021.8mb 69f 60f
9:48 7 14 mph 1021.7mb 69f 60f
9:42 7 14 mph 1021.7mb 68f 60f
9:36 9 14 mph 1021.7mb 68f 61f
9:30 11 14 mph 1021.7mb 68f 60f
9:24 8 14 mph 1021.7mb 69f 61f
9:18 10 14 mph 1021.6mb 69f 61f
9:12 8 11 mph 1021.7mb 69f 61f
9:06 8 11 mph 1021.7mb 69f 62f
9:00 6 14 mph 1021.7mb 69f 62f
8:54 8 13 mph 1021.7mb 69f 62f
8:48 3 7 mph 1021.8mb 69f 62f
8:42 6 6 mph 1021.9mb 69f 62f
8:36 6 8 mph 1021.9mb 69f 62f
8:30 6 9 mph 1021.9mb 69f 62f
8:24 7 11 mph 1022mb 69f 62f
8:18 7 14 mph 1022mb 69f 62f
8:12 9 14 mph 1022mb 69f 62f
8:06 10 14 mph 1022mb 69f 63f
8:00 9 15 mph 1022.1mb 69f 63f
7:54 10 14 mph 1022.1mb 69f 63f
7:48 11 15 mph 1022.2mb 69f 63f
7:42 11 16 mph 1022.2mb 69f 63f
7:36 13 15 mph 1022.2mb 69f 63f
7:30 14 16 mph 1022.2mb 69f 63f
7:24 15 18 mph 1022.2mb 69f 63f
7:18 14 18 mph 1022.2mb 70f 63f
7:12 13 17 mph 1022.2mb 70f 63f
7:06 15 20 mph 1022.3mb 70f 63f
7:00 15 18 mph 1022.3mb 70f 64f
6:54 14 22 mph 1022.3mb 70f 64f
6:48 14 17 mph 1022.4mb 70f 64f
6:42 14 18 mph 1022.4mb 70f 64f
6:36 15 22 mph 1022.4mb 70f 64f
6:30 16 20 mph 1022.4mb 70f 64f
6:24 14 17 mph 1022.5mb 70f 64f
6:18 13 14 mph 1022.6mb 70f 64f
6:12 11 15 mph 1022.6mb 70f 64f
6:06 11 16 mph 1022.7mb 70f 64f
6:00 14 16 mph 1022.8mb 70f 63f
5:54 14 16 mph 1022.9mb 70f 63f
5:48 14 18 mph 1023mb 70f 64f
5:42 15 18 mph 1023mb 70f 64f
5:36 15 18 mph 1023mb 70f 64f
5:30 15 17 mph 1023.1mb 70f 64f
5:24 15 18 mph 1023.1mb 70f 64f
5:18 16 20 mph 1023.1mb 70f 64f
5:12 14 16 mph 1023.2mb 70f 64f
5:06 15 17 mph 1023.3mb 70f 64f
5:00 14 16 mph 1023.4mb 70f 65f
4:54 13 16 mph 1023.4mb 70f 64f
4:48 13 16 mph 1023.4mb 70f 65f
4:42 13 16 mph 1023.5mb 70f 65f
4:36 13 15 mph 1023.5mb 70f 64f
4:30 11 15 mph 1023.6mb 70f 65f
4:24 13 15 mph 1023.6mb 70f 65f
4:18 5 15 mph 1023.6mb 70f 65f
4:12 2 13 mph 1023.8mb 70f 66f
4:06 2 5 mph 1023.8mb 70f 66f
4:00 2 6 mph 1023.8mb 70f 66f
3:54 2 6 mph 1023.8mb 70f 66f
3:48 1 6 mph 1023.9mb 70f 66f
3:42 1 6 mph 1024mb 70f 66f
3:36 1 8 mph 1024mb 70f 66f
3:30 1 5 mph 1024.1mb 70f 66f
3:24 2 7 mph 1024.2mb 70f 65f
3:18 1 6 mph 1024.2mb 70f 65f
3:12 1 7 mph 1024.2mb 70f 65f
3:06 1 6 mph 1024.3mb 70f 65f
3:00 2 7 mph 1024.4mb 70f 65f
2:54 2 8 mph 1024.4mb 70f 65f
2:48 2 6 mph 1024.5mb 70f 65f
2:42 2 7 mph 1024.5mb 70f 65f
2:36 2 9 mph 1024.5mb 70f 65f
2:30 2 9 mph 1024.5mb 70f 65f
2:24 2 8 mph 1024.6mb 70f 65f
2:18 1 11 mph 1024.7mb 70f 65f
2:12 2 9 mph 1024.7mb 70f 65f
2:06 3 9 mph 1024.7mb 70f 65f
2:00 2 10 mph 1024.8mb 70f 65f
1:54 2 6 mph 1024.8mb 70f 65f
1:48 2 8 mph 1024.9mb 70f 64f
1:42 2 6 mph 1024.9mb 70f 65f
1:36 2 7 mph 1024.9mb 70f 65f
1:30 2 8 mph 1024.9mb 69f 65f
1:24 3 7 mph 1024.9mb 69f 65f
1:18 1 5 mph 1025mb 69f 65f
1:12 2 7 mph 1025mb 69f 65f
1:06 5 10 mph 1025mb 69f 64f
1:00 2 9 mph 1025mb 69f 64f